Time;durP1;ratioP1;P1;durP2;ratioP2;P2;SDS_P1;SDS_P2;PMS_P1;PMS_P2;Temp;Humidity;BMP_temperature;BMP_pressure;BME280_temperature;BME280_humidity;BME280_pressure;Samples;Min_cycle;Max_cycle;Signal;HPM_P1;HPM_P2
2022/02/23 00:02:16;;;;;;;1.50;0.50;;;7.90;14.40;;;;;;7368442;19;20025;-62
2022/02/23 00:04:46;;;;;;;2.85;0.70;;;7.90;14.40;;;;;;7364889;19;20462;-62
2022/02/23 00:07:16;;;;;;;0.60;0.30;;;7.90;14.40;;;;;;7364357;19;20074;-61
2022/02/23 00:09:46;;;;;;;2.63;0.60;;;7.90;14.50;;;;;;7364402;19;20016;-62
2022/02/23 00:12:18;;;;;;;1.42;0.50;;;7.90;14.70;;;;;;7369385;19;20101;-61
2022/02/23 00:14:54;;;;;;;1.27;0.40;;;7.90;14.60;;;;;;7387726;19;20014;-62
2022/02/23 00:17:25;;;;;;;3.00;0.57;;;7.90;14.40;;;;;;7365720;19;20074;-62
2022/02/23 00:19:55;;;;;;;1.90;0.77;;;8.00;14.60;;;;;;7365546;19;20078;-62
2022/02/23 00:22:25;;;;;;;2.00;0.60;;;8.00;14.50;;;;;;7370871;19;20030;-62
2022/02/23 00:24:55;;;;;;;1.75;1.02;;;8.00;14.50;;;;;;7365307;19;20050;-62
2022/02/23 00:27:28;;;;;;;0.77;0.40;;;8.00;14.50;;;;;;7363819;19;20061;-64
2022/02/23 00:30:01;;;;;;;1.95;0.50;;;8.10;14.60;;;;;;7363097;19;20059;-62
2022/02/23 00:32:31;;;;;;;2.30;0.60;;;8.10;14.60;;;;;;7392272;19;20109;-62
2022/02/23 00:35:01;;;;;;;1.75;0.60;;;8.10;14.60;;;;;;7365973;19;20021;-62
2022/02/23 00:37:32;;;;;;;1.05;0.60;;;8.10;14.60;;;;;;7364660;19;20477;-62
2022/02/23 00:40:03;;;;;;;1.83;0.70;;;8.10;14.80;;;;;;7364971;19;20010;-62
2022/02/23 00:42:35;;;;;;;2.35;0.88;;;8.10;14.80;;;;;;7369417;19;20101;-61
2022/02/23 00:45:06;;;;;;;1.27;0.60;;;8.10;15.00;;;;;;7367673;19;20501;-62
2022/02/23 00:47:36;;;;;;;2.53;0.52;;;8.10;15.50;;;;;;7385866;19;20070;-61
2022/02/23 00:50:07;;;;;;;1.90;0.57;;;8.20;15.70;;;;;;7363890;19;20005;-62
2022/02/23 00:52:40;;;;;;;2.45;0.43;;;8.10;16.00;;;;;;7365952;19;20002;-62
2022/02/23 00:55:11;;;;;;;1.75;0.88;;;8.10;16.40;;;;;;7365514;19;20007;-61
2022/02/23 00:57:43;;;;;;;2.17;0.70;;;8.20;16.70;;;;;;7363883;19;20074;-62
2022/02/23 01:00:17;;;;;;;1.42;0.80;;;8.40;16.40;;;;;;7363806;19;20043;-63
2022/02/23 01:02:47;;;;;;;4.28;1.98;;;8.60;17.80;;;;;;7389303;19;20028;-62
2022/02/23 01:05:17;;;;;;;3.00;1.00;;;8.90;16.30;;;;;;7362075;19;20010;-62
2022/02/23 01:07:49;;;;;;;3.05;1.27;;;9.10;15.70;;;;;;7363564;19;20477;-63
2022/02/23 01:10:19;;;;;;;4.65;1.17;;;9.20;15.30;;;;;;7366373;19;20011;-63
2022/02/23 01:12:52;;;;;;;4.53;0.98;;;9.20;15.20;;;;;;7367357;19;20082;-62
2022/02/23 01:15:22;;;;;;;3.47;1.40;;;9.20;14.60;;;;;;7363248;19;20528;-61
2022/02/23 01:17:54;;;;;;;2.53;0.80;;;9.20;14.90;;;;;;7385762;19;20017;-62
2022/02/23 01:20:24;;;;;;;2.35;1.08;;;9.20;15.20;;;;;;7364802;19;20515;-61
2022/02/23 01:22:59;;;;;;;2.78;1.60;;;9.20;15.30;;;;;;7367405;19;20027;-63
2022/02/23 01:25:31;;;;;;;3.50;0.90;;;9.20;15.20;;;;;;7363789;19;20006;-63
2022/02/23 01:28:08;;;;;;;4.63;0.73;;;9.20;15.50;;;;;;7362181;19;20018;-63
2022/02/23 01:30:38;;;;;;;4.20;0.93;;;9.20;16.90;;;;;;7365729;19;20015;-62
2022/02/23 01:33:08;;;;;;;3.92;0.90;;;7.10;15.50;;;;;;7366081;19;20025;-62
2022/02/23 01:35:38;;;;;;;7.00;1.10;;;6.10;21.30;;;;;;7385430;19;20010;-61
2022/02/23 01:38:08;;;;;;;9.55;1.80;;;5.40;28.80;;;;;;7361380;19;20007;-61
2022/02/23 01:40:38;;;;;;;5.72;1.33;;;5.20;35.70;;;;;;7365052;19;20013;-61
2022/02/23 01:43:11;;;;;;;4.13;1.27;;;5.10;38.50;;;;;;7367706;19;20007;-61
2022/02/23 01:45:43;;;;;;;4.53;1.10;;;5.00;39.80;;;;;;7363401;19;20015;-61
2022/02/23 01:48:13;;;;;;;5.72;1.20;;;5.10;41.00;;;;;;7363488;19;20025;-61
2022/02/23 01:50:43;;;;;;;10.73;1.30;;;5.00;40.70;;;;;;7385488;19;20014;-62
2022/02/23 01:53:14;;;;;;;8.18;1.40;;;5.10;40.10;;;;;;7366550;19;20034;-62
2022/02/23 01:55:44;;;;;;;3.20;1.10;;;5.10;37.60;;;;;;7364554;19;20023;-61
2022/02/23 01:58:16;;;;;;;4.35;1.23;;;5.10;35.50;;;;;;7363116;19;20461;-61
2022/02/23 02:00:46;;;;;;;6.10;1.20;;;5.10;35.10;;;;;;7363701;19;20018;-61
2022/02/23 02:03:16;;;;;;;6.20;1.30;;;5.10;34.80;;;;;;7367436;19;20003;-61
2022/02/23 02:05:46;;;;;;;3.70;1.20;;;5.10;34.00;;;;;;7383235;19;20101;-61
2022/02/23 02:08:16;;;;;;;7.97;1.27;;;5.10;34.40;;;;;;7361904;19;20003;-61
2022/02/23 02:10:46;;;;;;;5.63;1.25;;;5.10;34.60;;;;;;7362503;19;20573;-61
2022/02/23 02:13:18;;;;;;;3.47;1.02;;;5.10;34.50;;;;;;7366157;19;20473;-61
2022/02/23 02:15:48;;;;;;;3.95;1.48;;;5.20;34.10;;;;;;7361446;19;20019;-61
2022/02/23 02:18:18;;;;;;;2.47;1.20;;;5.20;34.00;;;;;;7362707;19;20014;-62
2022/02/23 02:20:48;;;;;;;7.28;1.70;;;5.20;34.70;;;;;;7382988;19;20031;-61
2022/02/23 02:23:20;;;;;;;6.00;1.45;;;5.30;34.10;;;;;;7364447;19;20006;-61
2022/02/23 02:25:50;;;;;;;6.22;1.17;;;5.30;34.10;;;;;;7361205;19;20014;-61
2022/02/23 02:28:20;;;;;;;6.75;1.88;;;5.30;33.30;;;;;;7365023;19;20006;-61
2022/02/23 02:30:50;;;;;;;5.95;1.65;;;5.40;33.20;;;;;;7361456;19;20090;-61
2022/02/23 02:33:20;;;;;;;3.90;2.38;;;5.40;32.10;;;;;;7365102;19;20467;-61
2022/02/23 02:35:50;;;;;;;5.68;1.50;;;5.40;29.70;;;;;;7380563;19;20094;-61
2022/02/23 02:38:24;;;;;;;7.78;1.85;;;5.40;30.80;;;;;;7362461;19;20022;-61
2022/02/23 02:40:53;;;;;;;7.47;1.75;;;5.40;29.20;;;;;;7360859;19;20105;-61
2022/02/23 02:43:24;;;;;;;6.07;1.92;;;5.40;29.30;;;;;;7364437;19;20014;-61
2022/02/23 02:45:53;;;;;;;4.18;1.27;;;5.50;30.00;;;;;;7357215;19;20026;-61
2022/02/23 02:48:24;;;;;;;8.38;1.33;;;5.50;29.20;;;;;;7360776;19;20011;-60
2022/02/23 02:50:54;;;;;;;4.93;1.52;;;5.50;29.00;;;;;;7384120;19;20488;-62
2022/02/23 02:53:28;;;;;;;9.93;2.25;;;5.50;29.50;;;;;;7362956;19;20765;-62
2022/02/23 02:55:58;;;;;;;5.65;1.25;;;5.50;29.10;;;;;;7358456;19;20078;-62
2022/02/23 02:58:28;;;;;;;6.47;1.33;;;5.50;29.60;;;;;;7362876;19;20027;-62
2022/02/23 03:00:58;;;;;;;6.00;1.88;;;5.50;30.60;;;;;;7363104;19;20044;-62
2022/02/23 03:03:29;;;;;;;9.13;1.90;;;5.50;29.50;;;;;;7364026;19;20023;-62
2022/02/23 03:05:58;;;;;;;7.35;2.10;;;5.50;29.30;;;;;;7376762;19;20012;-66
2022/02/23 03:08:31;;;;;;;5.50;1.92;;;5.60;29.70;;;;;;7384882;19;20021;-63
2022/02/23 03:11:01;;;;;;;7.25;2.22;;;5.60;29.90;;;;;;7361322;19;20102;-62
2022/02/23 03:13:31;;;;;;;8.55;2.08;;;5.60;30.40;;;;;;7361911;19;20024;-62
2022/02/23 03:16:01;;;;;;;9.77;2.35;;;5.50;30.30;;;;;;7356401;19;20017;-61
2022/02/23 03:18:32;;;;;;;7.05;2.30;;;5.50;31.60;;;;;;7360111;19;20007;-63
2022/02/23 03:21:02;;;;;;;12.73;1.90;;;5.40;31.80;;;;;;7361151;19;20458;-62
2022/02/23 03:23:37;;;;;;;9.43;1.75;;;5.30;32.20;;;;;;7386020;19;20006;-61
2022/02/23 03:26:08;;;;;;;5.15;1.70;;;5.30;34.10;;;;;;7357071;19;20020;-62
2022/02/23 03:28:38;;;;;;;6.90;2.10;;;5.30;34.10;;;;;;7358591;19;20032;-62
2022/02/23 03:31:09;;;;;;;7.72;1.85;;;5.20;34.10;;;;;;7358021;19;20010;-61
2022/02/23 03:33:42;;;;;;;8.13;1.73;;;5.20;34.10;;;;;;7364417;19;20010;-62
2022/02/23 03:36:14;;;;;;;6.53;1.30;;;5.20;34.90;;;;;;7356977;19;20010;-62
2022/02/23 03:38:47;;;;;;;9.35;2.05;;;5.20;35.30;;;;;;7382876;19;20255;-62
2022/02/23 03:41:17;;;;;;;6.80;1.77;;;5.20;35.30;;;;;;7358892;19;20070;-62
2022/02/23 03:43:47;;;;;;;7.63;1.98;;;5.20;35.80;;;;;;7359454;19;20263;-62
2022/02/23 03:46:17;;;;;;;8.75;2.22;;;5.20;35.90;;;;;;7357153;19;20046;-62
2022/02/23 03:48:48;;;;;;;4.72;1.80;;;5.20;36.00;;;;;;7359572;19;20025;-62
2022/02/23 03:51:17;;;;;;;10.57;2.20;;;5.30;34.40;;;;;;7380154;19;20014;-62
2022/02/23 03:53:50;;;;;;;9.13;2.22;;;5.40;34.20;;;;;;7357679;19;20019;-62
2022/02/23 03:59:06;;;;;;;7.32;1.90;;;5.50;34.30;;;;;;7360947;19;20007;-62
2022/02/23 04:01:37;;;;;;;10.60;2.00;;;5.50;34.30;;;;;;7360612;19;20078;-61
2022/02/23 04:04:09;;;;;;;7.13;2.20;;;5.50;34.10;;;;;;7362782;19;20098;-61
2022/02/23 04:06:39;;;;;;;11.63;2.22;;;5.50;33.40;;;;;;7356931;19;20025;-62
2022/02/23 04:09:13;;;;;;;9.70;2.45;;;5.50;34.20;;;;;;7381339;19;20526;-62
2022/02/23 04:11:46;;;;;;;9.50;2.53;;;5.50;34.70;;;;;;7362588;19;20006;-62
2022/02/23 04:14:16;;;;;;;9.95;2.10;;;5.50;35.20;;;;;;7361328;19;20003;-62
2022/02/23 04:16:47;;;;;;;10.60;2.10;;;5.40;35.70;;;;;;7355837;19;20015;-62
2022/02/23 04:19:17;;;;;;;9.57;2.05;;;5.40;36.80;;;;;;7356438;19;20470;-61
2022/02/23 04:21:49;;;;;;;8.00;1.95;;;5.30;36.90;;;;;;7363296;19;20018;-61
2022/02/23 04:24:21;;;;;;;10.35;2.60;;;5.30;36.90;;;;;;7382591;19;20087;-61
2022/02/23 04:26:52;;;;;;;14.77;2.53;;;5.20;37.40;;;;;;7354408;19;20081;-61
2022/02/23 04:29:21;;;;;;;10.98;2.33;;;5.20;37.80;;;;;;7356342;19;20010;-62
2022/02/23 04:31:51;;;;;;;9.15;2.10;;;5.20;37.60;;;;;;7363270;19;20010;-62
2022/02/23 04:34:21;;;;;;;9.30;2.38;;;5.20;37.50;;;;;;7362451;19;20027;-62
2022/02/23 04:36:53;;;;;;;15.15;2.60;;;5.20;37.50;;;;;;7355778;19;20530;-61
2022/02/23 04:39:32;;;;;;;7.88;2.28;;;5.10;37.70;;;;;;7380475;19;20010;-61
2022/02/23 04:42:02;;;;;;;14.30;2.42;;;5.00;37.80;;;;;;7369487;19;20006;-62
2022/02/23 04:44:32;;;;;;;13.55;3.38;;;5.00;38.10;;;;;;7370082;19;20465;-62
2022/02/23 04:47:02;;;;;;;8.40;2.35;;;5.00;37.90;;;;;;7363014;19;20014;-62
2022/02/23 04:49:32;;;;;;;11.30;2.40;;;5.00;37.90;;;;;;7362920;19;20006;-62
2022/02/23 04:52:02;;;;;;;10.70;2.97;;;5.00;37.90;;;;;;7369301;19;20986;-62
2022/02/23 04:54:36;;;;;;;14.00;3.22;;;5.00;37.50;;;;;;7373396;19;20015;-62
2022/02/23 04:57:06;;;;;;;15.07;3.38;;;5.00;36.30;;;;;;7384763;19;20082;-62
2022/02/23 04:59:36;;;;;;;12.43;3.15;;;5.00;35.40;;;;;;7362036;19;20010;-62
2022/02/23 05:02:09;;;;;;;12.70;2.42;;;4.90;35.60;;;;;;7367844;19;20010;-62
2022/02/23 05:04:40;;;;;;;7.10;2.55;;;4.90;36.00;;;;;;7367144;19;20011;-62
2022/02/23 05:07:10;;;;;;;7.45;2.30;;;4.80;36.50;;;;;;7366412;19;20734;-62
2022/02/23 05:09:42;;;;;;;16.38;2.83;;;4.70;37.20;;;;;;7361968;19;20030;-62
2022/02/23 05:12:13;;;;;;;10.25;2.40;;;4.60;37.50;;;;;;7388868;19;20014;-62
2022/02/23 05:14:43;;;;;;;11.32;3.00;;;4.60;38.60;;;;;;7364380;19;20011;-62
2022/02/23 05:17:14;;;;;;;8.38;2.80;;;4.60;38.80;;;;;;7363506;19;20011;-61
2022/02/23 05:19:44;;;;;;;8.82;2.75;;;4.60;38.40;;;;;;7362251;19;20027;-61
2022/02/23 05:22:14;;;;;;;10.65;2.10;;;4.60;38.60;;;;;;7367022;19;20082;-61
2022/02/23 05:24:46;;;;;;;10.07;2.95;;;4.50;38.50;;;;;;7364673;19;20344;-61
2022/02/23 05:27:16;;;;;;;10.27;2.47;;;4.50;38.50;;;;;;7386546;19;20085;-62
2022/02/23 05:29:46;;;;;;;9.10;2.60;;;4.40;38.70;;;;;;7362084;19;20010;-62
2022/02/23 05:32:16;;;;;;;7.00;2.28;;;4.50;39.60;;;;;;7366258;19;20017;-62
2022/02/23 05:34:46;;;;;;;12.40;2.42;;;4.40;39.70;;;;;;7364309;19;20006;-62
2022/02/23 05:37:16;;;;;;;13.82;3.42;;;4.40;40.00;;;;;;7363080;19;20070;-62
2022/02/23 05:39:48;;;;;;;14.88;3.20;;;4.50;39.90;;;;;;7362055;19;20035;-61
2022/02/23 05:42:18;;;;;;;8.40;2.75;;;4.50;39.20;;;;;;7387326;19;20006;-62
2022/02/23 05:44:48;;;;;;;12.40;3.13;;;4.50;38.80;;;;;;7362724;19;20005;-62
2022/02/23 05:47:18;;;;;;;10.63;2.83;;;4.40;37.90;;;;;;7361980;19;20512;-62
2022/02/23 05:49:48;;;;;;;15.98;3.03;;;4.40;38.20;;;;;;7362981;19;20006;-61
2022/02/23 05:52:20;;;;;;;6.07;2.30;;;4.40;38.70;;;;;;7364872;19;20038;-62
2022/02/23 05:54:52;;;;;;;10.95;2.95;;;4.40;38.90;;;;;;7364303;19;20010;-62
2022/02/23 05:57:22;;;;;;;9.45;2.95;;;4.40;39.30;;;;;;7384104;19;20014;-63
2022/02/23 05:59:52;;;;;;;11.07;3.17;;;4.40;39.20;;;;;;7359364;19;20006;-62
2022/02/23 06:02:22;;;;;;;11.35;2.90;;;4.60;39.40;;;;;;7365078;19;20070;-62
2022/02/23 06:04:52;;;;;;;9.07;2.92;;;4.60;39.00;;;;;;7365762;19;20017;-62
2022/02/23 06:07:22;;;;;;;10.93;3.10;;;4.80;36.80;;;;;;7364008;19;21432;-62
2022/02/23 06:09:54;;;;;;;9.20;3.25;;;4.90;34.40;;;;;;7359737;19;20008;-62
2022/02/23 06:12:24;;;;;;;9.35;3.13;;;4.90;34.60;;;;;;7385956;19;20016;-63
2022/02/23 06:14:54;;;;;;;10.63;3.20;;;4.90;33.80;;;;;;7363949;19;20089;-62
2022/02/23 06:17:24;;;;;;;12.32;3.30;;;4.80;34.80;;;;;;7359471;19;20013;-62
2022/02/23 06:19:55;;;;;;;10.93;3.33;;;4.80;35.80;;;;;;7360774;19;20022;-63
2022/02/23 06:22:25;;;;;;;9.80;3.20;;;4.80;35.30;;;;;;7363470;19;20021;-62
2022/02/23 06:24:57;;;;;;;10.95;3.03;;;4.80;36.10;;;;;;7363202;19;20094;-62
2022/02/23 06:27:27;;;;;;;12.95;3.00;;;4.80;36.80;;;;;;7384344;19;20010;-61
2022/02/23 06:29:57;;;;;;;8.95;3.53;;;4.90;37.50;;;;;;7359525;19;20092;-61
2022/02/23 06:32:27;;;;;;;14.00;3.17;;;4.90;38.00;;;;;;7362172;19;20010;-61
2022/02/23 06:34:57;;;;;;;16.00;3.65;;;4.90;38.40;;;;;;7361675;19;20010;-61
2022/02/23 06:37:27;;;;;;;8.48;3.10;;;5.00;38.50;;;;;;7361995;19;20014;-63
2022/02/23 06:39:59;;;;;;;14.65;3.88;;;4.90;38.40;;;;;;7358858;19;20090;-62
2022/02/23 06:42:30;;;;;;;16.40;4.32;;;5.00;38.80;;;;;;7384200;19;20492;-62
2022/02/23 06:45:02;;;;;;;11.30;4.05;;;5.00;38.30;;;;;;7360590;19;20094;-62
2022/02/23 06:47:32;;;;;;;18.20;4.18;;;5.00;37.80;;;;;;7359727;19;20034;-62
2022/02/23 06:50:02;;;;;;;9.13;3.60;;;5.00;38.30;;;;;;7360459;19;20081;-61
2022/02/23 06:52:34;;;;;;;10.63;3.88;;;5.00;38.80;;;;;;7363155;19;20297;-62
2022/02/23 06:55:08;;;;;;;16.27;4.68;;;5.10;39.50;;;;;;7360816;19;20156;-62
2022/02/23 06:57:38;;;;;;;11.85;3.78;;;5.10;38.90;;;;;;7359433;19;20346;-62
2022/02/23 07:00:11;;;;;;;8.98;3.90;;;5.20;39.30;;;;;;7381452;19;20025;-62
2022/02/23 07:02:41;;;;;;;9.50;4.22;;;5.20;38.20;;;;;;7362007;19;20006;-62
2022/02/23 07:05:13;;;;;;;12.02;4.05;;;5.20;38.10;;;;;;7361481;19;20014;-62
2022/02/23 07:07:43;;;;;;;13.45;4.45;;;5.20;36.50;;;;;;7358540;19;20462;-62
2022/02/23 07:10:23;;;;;;;14.27;3.88;;;5.30;35.60;;;;;;7359325;19;20007;-61
2022/02/23 07:12:54;;;;;;;11.77;4.30;;;5.30;34.50;;;;;;7363081;19;20021;-62
2022/02/23 07:15:26;;;;;;;18.50;4.40;;;5.50;35.10;;;;;;7384685;19;20458;-62
2022/02/23 07:17:56;;;;;;;12.32;3.72;;;5.50;34.20;;;;;;7357965;19;20014;-61
2022/02/23 07:20:26;;;;;;;10.68;4.40;;;5.60;33.90;;;;;;7357724;19;20102;-62
2022/02/23 07:22:56;;;;;;;15.45;4.82;;;5.60;34.30;;;;;;7362932;19;20006;-61
2022/02/23 07:25:29;;;;;;;11.25;4.20;;;5.60;34.00;;;;;;7360865;19;20014;-61
2022/02/23 07:27:59;;;;;;;16.00;4.75;;;5.70;33.40;;;;;;7358214;19;20026;-60
2022/02/23 07:30:28;;;;;;;11.27;3.85;;;5.70;32.20;;;;;;7378926;19;20011;-61
2022/02/23 07:32:59;;;;;;;13.50;4.57;;;5.80;32.30;;;;;;7362243;19;20392;-62
2022/02/23 07:35:28;;;;;;;12.85;4.43;;;6.00;33.80;;;;;;7359782;19;20110;-63
2022/02/23 07:38:05;;;;;;;15.20;5.15;;;6.00;33.40;;;;;;7358029;19;20010;-62
2022/02/23 07:40:37;;;;;;;13.40;4.28;;;6.00;32.30;;;;;;7358932;19;20032;-62
2022/02/23 07:43:28;;;;;;;25.13;8.82;;;6.00;31.90;;;;;;7362704;19;20011;-61
2022/02/23 07:45:58;;;;;;;10.10;4.22;;;6.20;32.00;;;;;;7357161;19;20027;-61
2022/02/23 07:48:28;;;;;;;12.38;4.88;;;6.20;31.50;;;;;;7382983;19;20030;-62
2022/02/23 07:50:58;;;;;;;15.32;3.97;;;6.10;31.80;;;;;;7359443;19;20011;-62
2022/02/23 07:53:29;;;;;;;10.13;4.47;;;6.20;31.50;;;;;;7361781;19;20013;-63
2022/02/23 07:56:01;;;;;;;13.88;4.00;;;6.10;31.30;;;;;;7356023;19;20017;-61
2022/02/23 07:58:31;;;;;;;12.88;4.50;;;6.10;31.10;;;;;;7360490;19;20017;-61
2022/02/23 08:01:01;;;;;;;12.00;4.20;;;6.00;31.80;;;;;;7359718;19;20014;-62
2022/02/23 08:03:32;;;;;;;9.73;4.22;;;6.00;33.70;;;;;;7377479;19;20023;-63
2022/02/23 08:06:02;;;;;;;12.32;4.78;;;5.90;33.20;;;;;;7377338;19;20066;-62
2022/02/23 08:08:32;;;;;;;13.65;4.53;;;5.90;33.40;;;;;;7359450;19;20014;-62
2022/02/23 08:11:04;;;;;;;15.30;4.45;;;6.00;33.80;;;;;;7358060;19;20015;-62
2022/02/23 08:13:34;;;;;;;12.40;5.22;;;6.20;33.90;;;;;;7361809;19;20447;-62
2022/02/23 08:21:29;;;;;;;13.23;5.13;;;6.50;30.00;;;;;;7387415;19;20014;-63
2022/02/23 08:23:59;;;;;;;11.75;4.22;;;6.60;28.70;;;;;;7369395;19;20022;-63
2022/02/23 08:26:31;;;;;;;14.30;4.60;;;6.60;27.60;;;;;;7364794;19;20637;-62
2022/02/23 08:29:01;;;;;;;12.82;4.70;;;6.70;27.80;;;;;;7366851;19;20015;-62
2022/02/23 08:31:31;;;;;;;13.30;4.85;;;6.80;28.30;;;;;;7366167;19;20023;-62
2022/02/23 08:34:02;;;;;;;11.10;5.05;;;6.80;27.60;;;;;;7370132;19;20082;-63
2022/02/23 08:36:32;;;;;;;10.68;5.20;;;6.90;28.20;;;;;;7370171;19;20440;-62
2022/02/23 08:39:02;;;;;;;14.43;5.78;;;7.00;27.10;;;;;;7387110;19;20015;-61
2022/02/23 08:41:35;;;;;;;11.38;5.13;;;7.10;26.90;;;;;;7364433;19;20011;-62
2022/02/23 08:44:22;;;;;;;12.35;4.88;;;7.10;25.80;;;;;;7366703;19;20034;-62
2022/02/23 08:46:52;;;;;;;12.45;5.18;;;7.10;24.30;;;;;;7363190;19;20089;-63
2022/02/23 08:49:22;;;;;;;15.25;5.38;;;7.20;24.40;;;;;;7362814;19;20073;-62
2022/02/23 08:51:51;;;;;;;14.48;5.80;;;7.20;24.10;;;;;;7365953;19;20906;-63
2022/02/23 08:54:22;;;;;;;12.25;4.93;;;7.40;24.00;;;;;;7388797;19;20537;-62
2022/02/23 08:56:55;;;;;;;13.57;4.45;;;7.50;23.20;;;;;;7362159;19;20398;-62
2022/02/23 08:59:25;;;;;;;12.45;4.55;;;7.50;22.60;;;;;;7361422;19;20094;-62
2022/02/23 09:01:55;;;;;;;13.65;4.93;;;7.60;22.30;;;;;;7369083;19;20109;-62
2022/02/23 09:04:24;;;;;;;12.10;4.70;;;7.80;21.40;;;;;;7367970;19;20010;-62
2022/02/23 09:06:54;;;;;;;15.57;6.20;;;7.90;21.40;;;;;;7361721;19;20091;-62
2022/02/23 09:09:25;;;;;;;12.35;5.10;;;7.80;19.50;;;;;;7383795;19;20501;-62
2022/02/23 09:11:57;;;;;;;17.27;5.35;;;8.00;20.70;;;;;;7368374;19;20014;-62
2022/02/23 09:14:27;;;;;;;11.13;5.50;;;8.10;19.10;;;;;;7366942;19;20016;-63
2022/02/23 09:16:57;;;;;;;11.85;4.68;;;8.10;18.10;;;;;;7360677;19;20010;-61
2022/02/23 09:19:27;;;;;;;12.48;5.65;;;8.20;17.20;;;;;;7361207;19;20551;-62
2022/02/23 09:21:57;;;;;;;13.77;5.25;;;8.20;16.40;;;;;;7368399;19;20097;-61
2022/02/23 09:24:27;;;;;;;10.38;5.00;;;8.30;16.00;;;;;;7389787;19;20088;-64
2022/02/23 09:27:01;;;;;;;17.27;7.80;;;8.30;13.90;;;;;;7357743;19;20074;-61
2022/02/23 09:29:34;;;;;;;9.45;4.00;;;8.50;12.90;;;;;;7359199;19;20016;-61
2022/02/23 09:32:04;;;;;;;10.10;4.25;;;8.60;12.50;;;;;;7367264;19;20028;-61
2022/02/23 09:34:34;;;;;;;13.40;4.47;;;8.70;11.20;;;;;;7367323;19;20122;-62
2022/02/23 09:37:04;;;;;;;12.70;5.15;;;8.80;11.00;;;;;;7360566;19;20011;-62
2022/02/23 09:39:34;;;;;;;10.57;4.07;;;8.80;10.40;;;;;;7360590;19;20020;-62
2022/02/23 09:42:07;;;;;;;10.57;3.50;;;8.90;8.50;;;;;;7387223;19;20069;-62
2022/02/23 09:44:40;;;;;;;9.25;3.70;;;8.90;7.50;;;;;;7366257;19;20006;-63
2022/02/23 09:47:18;;;;;;;12.15;3.53;;;9.00;6.50;;;;;;7364859;19;20013;-63
2022/02/23 09:49:50;;;;;;;10.98;3.35;;;9.10;4.20;;;;;;7362490;19;20077;-62
2022/02/23 09:52:23;;;;;;;6.32;2.78;;;9.10;2.40;;;;;;7365643;19;20017;-61
2022/02/23 09:54:53;;;;;;;8.10;3.77;;;9.20;3.40;;;;;;7365375;19;20029;-60
2022/02/23 09:57:26;;;;;;;7.03;3.47;;;9.40;4.40;;;;;;7383744;19;20018;-62
2022/02/23 09:59:58;;;;;;;8.10;3.55;;;9.50;1.20;;;;;;7359521;19;20035;-63
2022/02/23 10:02:28;;;;;;;9.48;2.88;;;9.40;1.00;;;;;;7363908;19;20404;-60
2022/02/23 10:05:02;;;;;;;8.85;3.05;;;9.30;1.70;;;;;;7363416;19;20431;-62
2022/02/23 10:07:38;;;;;;;12.23;3.47;;;9.50;1.00;;;;;;7363201;19;20011;-61
2022/02/23 10:10:11;;;;;;;12.07;3.17;;;9.60;1.00;;;;;;7361248;19;20516;-62
2022/02/23 10:12:44;;;;;;;11.07;3.42;;;10.10;1.00;;;;;;7364737;19;20015;-62
2022/02/23 10:15:20;;;;;;;11.18;2.65;;;10.00;1.00;;;;;;7384003;19;20014;-63
2022/02/23 10:17:52;;;;;;;8.13;2.70;;;9.90;1.00;;;;;;7361729;19;20003;-62
2022/02/23 10:20:25;;;;;;;8.32;2.65;;;10.20;1.00;;;;;;7361667;19;20074;-62
2022/02/23 10:23:00;;;;;;;6.47;2.72;;;9.80;1.00;;;;;;7367000;19;20014;-62
2022/02/23 10:25:32;;;;;;;8.88;2.95;;;9.80;1.00;;;;;;7362707;19;20533;-63
2022/02/23 10:28:12;;;;;;;4.75;2.10;;;9.60;1.00;;;;;;7360078;19;20089;-62
2022/02/23 10:30:49;;;;;;;8.23;2.75;;;9.90;1.00;;;;;;7360399;19;20014;-62
2022/02/23 10:33:22;;;;;;;9.07;2.38;;;10.40;1.00;;;;;;7386741;19;20018;-62
2022/02/23 10:36:16;;;;;;;16.23;2.97;;;10.50;1.00;;;;;;7359320;19;20006;-61
2022/02/23 10:38:48;;;;;;;4.22;2.00;;;10.80;1.00;;;;;;7362899;19;20010;-61
2022/02/23 10:41:30;;;;;;;10.18;3.22;;;11.00;1.00;;;;;;7359178;19;20021;-61
2022/02/23 10:44:05;;;;;;;6.63;2.50;;;10.90;1.00;;;;;;7362895;19;21282;-60
2022/02/23 10:46:37;;;;;;;8.95;1.92;;;10.70;1.00;;;;;;7360040;19;20007;-61
2022/02/23 10:49:09;;;;;;;11.48;2.38;;;10.70;1.00;;;;;;7361097;19;20010;-61
2022/02/23 10:51:42;;;;;;;11.05;2.53;;;10.30;1.00;;;;;;7361895;19;20018;-61
2022/02/23 10:54:15;;;;;;;9.85;3.92;;;10.80;1.00;;;;;;7384453;19;20098;-61
2022/02/23 10:56:46;;;;;;;8.45;2.15;;;10.90;1.00;;;;;;7357709;19;20011;-62
2022/02/23 10:59:23;;;;;;;10.45;2.30;;;11.10;1.00;;;;;;7359023;19;20119;-62
2022/02/23 11:01:54;;;;;;;8.43;2.13;;;11.20;1.00;;;;;;7364161;19;20017;-62
2022/02/23 11:04:25;;;;;;;6.25;1.90;;;11.30;1.00;;;;;;7364565;19;20394;-62
2022/02/23 11:06:55;;;;;;;9.30;2.10;;;11.30;1.00;;;;;;7358553;19;20011;-62
2022/02/23 11:09:26;;;;;;;8.27;2.45;;;11.30;1.00;;;;;;7380758;19;20006;-62
2022/02/23 11:11:56;;;;;;;17.52;2.63;;;11.20;1.00;;;;;;7363242;19;20019;-62
2022/02/23 11:14:30;;;;;;;4.30;1.70;;;11.30;1.00;;;;;;7363275;19;20014;-62
2022/02/23 11:17:02;;;;;;;8.40;2.15;;;11.20;1.00;;;;;;7358589;19;20093;-62
2022/02/23 11:19:33;;;;;;;9.73;2.28;;;11.10;1.00;;;;;;7359450;19;20351;-62
2022/02/23 11:22:05;;;;;;;6.13;1.73;;;11.20;1.00;;;;;;7362148;19;20017;-62
2022/02/23 11:24:36;;;;;;;12.88;2.63;;;11.10;1.00;;;;;;7365042;19;20077;-60
2022/02/23 11:27:10;;;;;;;7.82;2.33;;;11.10;1.00;;;;;;7380587;19;20014;-62
2022/02/23 11:30:05;;;;;;;7.18;2.28;;;11.30;1.00;;;;;;7357886;19;20007;-61
2022/02/23 11:32:40;;;;;;;7.18;2.15;;;10.80;1.00;;;;;;7361489;19;20012;-62
2022/02/23 11:35:11;;;;;;;3.90;1.80;;;10.90;1.00;;;;;;7361543;19;20015;-62
2022/02/23 11:37:41;;;;;;;10.35;2.60;;;11.00;1.00;;;;;;7358545;19;20011;-62
2022/02/23 11:40:12;;;;;;;8.55;2.63;;;11.00;1.00;;;;;;7357284;19;21063;-62
2022/02/23 11:42:45;;;;;;;8.05;2.50;;;11.10;1.00;;;;;;7361645;19;20398;-60
2022/02/23 11:45:17;;;;;;;8.68;2.38;;;11.00;1.00;;;;;;7382220;19;20027;-61
2022/02/23 11:48:07;;;;;;;7.75;2.75;;;11.00;1.00;;;;;;7359035;19;20010;-62
2022/02/23 11:51:06;;;;;;;9.02;2.53;;;11.20;1.00;;;;;;7357609;19;20006;-61
2022/02/23 11:53:51;;;;;;;7.88;1.92;;;11.20;1.00;;;;;;7363810;19;20028;-62
2022/02/23 11:56:41;;;;;;;7.93;2.50;;;11.50;1.00;;;;;;7358306;19;20094;-61
2022/02/23 11:59:49;;;;;;;8.52;2.20;;;11.50;1.00;;;;;;7356967;19;20376;-63
2022/02/23 12:02:31;;;;;;;7.53;2.47;;;11.00;1.00;;;;;;7359966;19;20074;-61
2022/02/23 12:05:02;;;;;;;5.28;2.10;;;11.10;1.00;;;;;;7359446;19;20017;-62
2022/02/23 12:07:48;;;;;;;13.20;2.22;;;10.90;1.00;;;;;;7359298;19;20086;-61
2022/02/23 12:10:19;;;;;;;6.00;2.20;;;11.10;1.00;;;;;;7357984;19;20552;-62
2022/02/23 12:12:52;;;;;;;6.70;2.35;;;11.20;1.00;;;;;;7355351;19;20026;-62
2022/02/23 12:15:35;;;;;;;9.02;2.42;;;11.30;1.00;;;;;;7377344;19;20102;-62
2022/02/23 12:18:16;;;;;;;9.02;1.90;;;11.00;1.00;;;;;;7357611;19;20031;-62
2022/02/23 12:20:53;;;;;;;6.25;2.03;;;11.20;1.00;;;;;;7356630;19;20550;-61
2022/02/23 12:23:37;;;;;;;7.13;2.40;;;11.30;1.00;;;;;;7361458;19;20090;-61
2022/02/23 12:26:22;;;;;;;13.05;2.67;;;11.30;1.00;;;;;;7358560;19;20014;-62
2022/02/23 12:28:55;;;;;;;9.73;2.08;;;11.40;1.00;;;;;;7358155;19;20827;-60
2022/02/23 12:31:32;;;;;;;9.60;2.05;;;11.60;1.00;;;;;;7356316;19;20490;-61
2022/02/23 12:34:07;;;;;;;6.30;1.88;;;11.70;1.00;;;;;;7358282;19;20015;-62
2022/02/23 12:36:58;;;;;;;8.35;2.05;;;11.60;1.00;;;;;;7355601;19;20021;-62
2022/02/23 12:39:33;;;;;;;5.05;1.92;;;11.40;1.00;;;;;;7378783;19;20082;-61
2022/02/23 12:42:04;;;;;;;;;;;11.60;1.00;;;;;;7359846;19;20025;-61
2022/02/23 12:44:37;;;;;;;7.47;2.38;;;11.70;1.00;;;;;;7358096;19;19943;-62
2022/02/23 12:47:10;;;;;;;6.88;2.25;;;11.70;1.00;;;;;;7356690;19;20006;-62
2022/02/23 12:49:43;;;;;;;10.52;2.33;;;11.60;1.00;;;;;;7355482;19;20086;-62
2022/02/23 12:52:13;;;;;;;9.27;2.30;;;11.80;1.00;;;;;;7360094;19;20098;-62
2022/02/23 12:54:43;;;;;;;6.13;2.03;;;11.90;1.00;;;;;;7359077;19;20044;-62
2022/02/23 12:57:14;;;;;;;6.18;3.63;;;12.00;1.00;;;;;;7377091;19;20007;-62
2022/02/23 12:59:44;;;;;;;4.07;2.00;;;12.10;1.00;;;;;;7353971;19;20011;-62
2022/02/23 13:02:14;;;;;;;8.63;2.30;;;12.10;1.00;;;;;;7364784;19;20010;-61
2022/02/23 13:04:47;;;;;;;12.75;2.28;;;12.00;1.00;;;;;;7363680;19;20085;-62
2022/02/23 13:07:19;;;;;;;8.20;2.50;;;11.80;1.00;;;;;;7362172;19;20453;-62
2022/02/23 13:09:53;;;;;;;5.32;1.70;;;12.00;1.00;;;;;;7360693;19;20038;-62
2022/02/23 13:12:23;;;;;;;9.75;2.17;;;12.10;1.00;;;;;;7387922;19;20014;-62
2022/02/23 13:14:57;;;;;;;9.02;2.05;;;12.00;1.00;;;;;;7365861;19;20352;-62
2022/02/23 13:17:27;;;;;;;7.72;2.55;;;11.90;1.00;;;;;;7364078;19;20015;-62
2022/02/23 13:20:00;;;;;;;8.98;2.55;;;11.60;1.00;;;;;;7360672;19;20038;-63
2022/02/23 13:22:30;;;;;;;4.50;1.63;;;11.50;1.00;;;;;;7362889;19;20046;-63
2022/02/23 13:25:02;;;;;;;8.32;2.40;;;11.50;1.00;;;;;;7363869;19;20018;-62
2022/02/23 13:27:52;;;;;;;5.22;1.95;;;11.70;1.00;;;;;;7362437;19;20003;-62